LFOP

Rouen Airport

Airport
ICAO code
LFOP
IATA Code
URO
Summary
ICAO Region
EUR
ICAO Territory
Location

, Haute-Normandie

Serving
Rouen
Elevation
512 ft
Coordinates
49° 23' 3" N , 1° 10' 29" E
Metar
Observation
LFOP 091830Z AUTO 32005KT 290V350 0550 0450 R22/0700N FZFG VV/// M00/M00 Q1007 TEMPO 0700
Station
Rouen
Date/Time
2022-12-09 18:30:00
Wind direction
320°
Wind speed
05 kts
Lowest cloud amount
n/a
Temperature
22°C
Dew point
0°C
Humidity
23%
QNH
1007 hPa
Weather condition
n/a

Runways

Designator Length Width Surface Rops
5/23 0 0 UNK No/No
4/22 1700 45 ASP Yes/Yes

Airport map

Aerial View

SKYbrary Partners:

Safety knowledge contributed by: